Terminal Aerodrome Forecast
Issued by NWS

Home | Current Version | Previous Version | Graphics & Text | Print | Product List | Glossary On
Versions: 1 2 3 4 5 6 7 8 9 10 11 12
246
FTUS42 KMHX 271123
TAFISO
TAF
KISO 271123Z 2712/2812 21005KT P6SM SKC
     FM271600 23010KT P6SM FEW250
     FM272300 24005KT P6SM BKN110
     FM280800 VRB04KT P6SM VCSH BKN070
      AMD LTD TO CLD VIS AND WIND=

USA.gov is the U.S. government's official web portal to all federal, state and local government web resources and services.